Airfield :
LOGIN :

Register | Disclaimer

   EN    FR    IT 

 










Legend :    VFR   Marginal VFR   IFR   Intensive IFR   Very Intensive IFR
Visi :
Ceiling :
>= 8 km
>= 3000ft
5 to 8 km
1000 to 3000 ft
1500m to 5 km
500 to 1000 ft
800 to 1500m
200 to 500 ft
< 800m
< 200 ft
Symbols :   Thunderstorms  Fog  Heavy snow  Heavy precipitations  Wind > 20 kt
SIGMETs :     Misc.  Thunderstorms  Icing  Turbulence  Mountain Waves  Volcanic Ashes






- Airport Elevation : 286 ft
- IATA code : FFD


EGVA - RAF Fairford

CURRENT METAR :
  • 060456Z AUTO 22013G20KT 9999 -RA BKN007 10/10 A2971 RMK AO2 DZB24E30RAB30 BKN V OVC SLP065 P0001 T01030103

EXPIRED METARs :
  • 060429Z AUTO 23012KT 9999 -DZ OVC007 10/10 A2973 RMK AO2 DZB24 SLP072
  • 060424Z AUTO 23012KT 9999 -DZ OVC008 10/10 A2973 RMK AO2 DZB24 CIG 007 RWY09 SLP072
  • 060356Z AUTO 22018G21KT 9999 BKN008 OVC013 10/10 A2974 RMK AO2 BKN V OVC CIG 007 RWY09 SLP075 T01030103
  • 060256Z AUTO 22016KT 9999 BKN008 OVC014 10/10 A2975 RMK AO2 SLP079 60000 T01000100 57019
  • 060211Z AUTO 22014KT 9999 OVC009 10/10 A2976 RMK AO2 CIG 008 RWY09 SLP082

Expired Forecast.



MET'MAP, your aeronautical weather chart ! - Copyright ORBIFLY December 2007 - Disclaimer

ORBIFLY MET'MAP TEAM :

Programming & Development : Alexandra Zaïnal
Concept & original design : Baudouin d'Aumeries
Assistance for programming : Marc-Olivier Méhu
Technical & hardware support : Manuel Goepfert

Contact : metmap@orbifly.com




SOURCES & CREDITS :

   NOAA